Terminal Aerodrome Forecast
Issued by NWS

Home | Current Version | Previous Version | Text Only | Print | Product List | Glossary On
Versions: 1 2 3 4 5 6 7 8 9 10 11 12 13 14 15 16 17 18 19 20 21
855
FTUS41 KPBZ 170531
TAFDUJ
TAF
KDUJ 170531Z 1706/1806 11006KT 4SM -RA VCSH OVC005
     FM170900 10004KT 3SM -RA BR OVC008
     FM171500 16006KT 2SM -RA BR OVC008
     FM171900 20007KT 3SM -RA BR OVC003
     FM172300 25008KT 5SM -SHRA BR OVC003=

USA.gov is the U.S. government's official web portal to all federal, state and local government web resources and services.